Terminal Aerodrome Forecast
Issued by NWS Wakefield, VA

Home | Current Version | Previous Version | Text Only | Print | Product List | Glossary On
Versions: 1 2 3 4 5 6 7 8 9 10 11 12 13 14 15 16 17 18 19 20 21 22 23 24 25 26 27 28 29
000
FTUS41 KAKQ 011632 AAA
TAFORF
TAF AMD
KORF 011632Z 0117/0212 20007KT P6SM BKN025 BKN040
      TEMPO 0117/0120 SCT025 BKN035
     FM012000 21006KT P6SM BKN040
     FM020300 18003KT P6SM SCT150=

USA.gov is the U.S. government's official web portal to all federal, state and local government web resources and services.